Time;durP1;ratioP1;P1;durP2;ratioP2;P2;SDS_P1;SDS_P2;PMS_P1;PMS_P2;Temp;Humidity;BMP_temperature;BMP_pressure;BME280_temperature;BME280_humidity;BME280_pressure;Samples;Min_cycle;Max_cycle;Signal;HPM_P1;HPM_P2
2023/06/19 00:03:37;;;;;;;;;9.25;6.50;;;;;21.74;67.10;100397.25;4979414;28;45529;-87
2023/06/19 00:06:03;;;;;;;;;7.00;6.25;;;;;21.76;67.16;100403.19;4978904;28;45525;-88
2023/06/19 00:08:28;;;;;;;;;6.75;6.25;;;;;21.74;67.50;100407.91;4979588;28;46229;-82
2023/06/19 00:10:54;;;;;;;;;7.50;6.00;;;;;21.71;67.71;100400.25;4978858;28;45644;-85
2023/06/19 00:13:19;;;;;;;;;6.75;6.25;;;;;21.64;67.70;100384.22;4981327;28;45621;-88
2023/06/19 00:15:45;;;;;;;;;6.50;5.50;;;;;21.71;67.74;100403.75;4971048;28;45546;-89
2023/06/19 00:18:10;;;;;;;;;8.00;6.25;;;;;21.71;67.32;100405.59;4985913;28;45604;-90
2023/06/19 00:20:36;;;;;;;;;8.25;7.25;;;;;21.70;67.64;100417.31;4981590;28;45514;-87
2023/06/19 00:23:01;;;;;;;;;8.25;6.75;;;;;21.61;67.96;100399.72;4978520;28;45942;-90
2023/06/19 00:25:27;;;;;;;;;3.00;3.00;;;;;21.62;67.55;100399.56;4977323;28;45639;-89
2023/06/19 00:27:52;;;;;;;;;5.75;5.75;;;;;21.58;67.72;100405.44;4977583;28;46681;-89
2023/06/19 00:30:17;;;;;;;;;8.00;7.75;;;;;21.59;67.48;100412.44;4977919;28;45858;-86
2023/06/19 00:32:46;;;;;;;;;8.25;8.25;;;;;21.63;67.46;100427.88;4977926;28;45692;-87
2023/06/19 00:35:16;;;;;;;;;8.00;7.25;;;;;21.64;67.47;100426.88;4977724;28;45667;-85
2023/06/19 00:37:45;;;;;;;;;7.75;7.00;;;;;21.61;67.71;100435.22;4977335;28;45520;-85
2023/06/19 00:40:24;;;;;;;;;7.25;6.75;;;;;21.55;67.40;100435.13;4975921;28;46513;-84
2023/06/19 00:42:49;;;;;;;;;10.25;9.25;;;;;21.48;67.97;100416.41;4976258;28;45469;-86
2023/06/19 00:45:15;;;;;;;;;8.25;8.25;;;;;21.63;67.55;100448.38;4976833;28;45659;-83
2023/06/19 00:47:40;;;;;;;;;8.00;7.25;;;;;21.51;67.70;100431.19;4976160;28;45547;-85
2023/06/19 00:50:06;;;;;;;;;7.25;6.75;;;;;21.40;68.15;100416.47;4976273;28;45474;-83
2023/06/19 00:52:32;;;;;;;;;7.25;7.25;;;;;21.63;67.98;100459.06;4976447;28;45653;-81
2023/06/19 00:54:57;;;;;;;;;10.75;8.25;;;;;21.63;67.55;100451.06;4976324;28;45960;-82
2023/06/19 00:57:23;;;;;;;;;8.50;8.50;;;;;21.65;67.91;100459.66;4977280;28;45714;-79
2023/06/19 01:03:09;;;;;;;;;6.50;6.00;;;;;21.65;67.85;100459.66;4976793;28;45694;-75
2023/06/19 01:05:35;;;;;;;;;8.00;7.75;;;;;21.64;67.77;100463.38;4977117;28;45917;-84
2023/06/19 01:08:16;;;;;;;;;8.50;7.25;;;;;21.69;67.52;100467.16;4977203;28;47275;-84
2023/06/19 01:10:54;;;;;;;;;9.00;8.75;;;;;21.70;67.51;100471.44;4976700;28;47103;-88
2023/06/19 01:13:27;;;;;;;;;11.50;9.75;;;;;21.71;67.29;100464.28;4977702;28;45657;-80
2023/06/19 01:15:53;;;;;;;;;9.00;8.50;;;;;21.72;67.32;100480.09;4978642;28;45631;-82
2023/06/19 01:18:20;;;;;;;;;11.75;10.00;;;;;21.72;67.54;100471.28;4978662;28;46419;-77
2023/06/19 01:20:45;;;;;;;;;8.50;7.50;;;;;21.70;67.48;100466.09;4977412;28;46119;-77
2023/06/19 01:23:11;;;;;;;;;8.50;7.50;;;;;21.70;67.23;100474.13;4978702;28;45525;-77
2023/06/19 01:25:37;;;;;;;;;8.50;7.50;;;;;21.70;67.69;100468.78;4977488;28;45706;-81
2023/06/19 01:28:05;;;;;;;;;9.25;8.25;;;;;21.72;67.73;100468.59;4977630;28;46334;-82
2023/06/19 01:33:53;;;;;;;;;8.25;7.00;;;;;21.75;67.80;100465.59;4977517;28;45682;-80
2023/06/19 01:36:21;;;;;;;;;6.50;5.25;;;;;21.68;67.41;100446.81;4977654;28;45688;-76
2023/06/19 01:38:49;;;;;;;;;9.00;8.00;;;;;21.73;67.70;100460.44;4976348;28;46475;-76
2023/06/19 01:41:15;;;;;;;;;8.00;7.50;;;;;21.76;67.66;100464.53;4977871;28;47143;-80
2023/06/19 01:43:41;;;;;;;;;7.50;7.50;;;;;21.76;67.75;100460.03;4978371;28;45579;-83
2023/06/19 01:46:07;;;;;;;;;9.75;8.75;;;;;21.68;67.35;100452.16;4977617;28;45809;-85
2023/06/19 01:48:35;;;;;;;;;10.25;8.00;;;;;21.64;66.91;100448.22;4980061;28;46731;-80
2023/06/19 01:51:00;;;;;;;;;8.00;7.75;;;;;21.75;67.66;100466.38;4962236;28;46431;-74
2023/06/19 01:53:26;;;;;;;;;7.25;7.25;;;;;21.78;67.23;100471.38;4979184;28;45683;-80
2023/06/19 01:55:51;;;;;;;;;8.50;7.75;;;;;21.80;67.63;100473.84;4959985;28;45967;-80
2023/06/19 01:58:17;;;;;;;;;19.50;12.00;;;;;21.69;67.17;100464.47;4977731;28;46517;-85
2023/06/19 02:04:04;;;;;;;;;12.00;10.25;;;;;21.77;67.60;100469.69;4977559;28;45704;-81
2023/06/19 02:06:30;;;;;;;;;9.50;9.00;;;;;21.81;67.54;100469.34;4978408;28;45646;-81
2023/06/19 02:08:55;;;;;;;;;9.75;9.00;;;;;21.85;66.86;100471.47;4977471;28;46434;-78
2023/06/19 02:11:20;;;;;;;;;10.25;7.50;;;;;21.80;66.82;100467.69;4979790;28;46109;-77
2023/06/19 02:13:47;;;;;;;;;10.75;10.00;;;;;21.84;67.30;100474.31;4961890;28;47602;-80
2023/06/19 02:19:34;;;;;;;;;10.25;9.75;;;;;21.71;67.44;100474.94;4977216;28;45661;-75
2023/06/19 02:21:59;;;;;;;;;10.00;10.00;;;;;21.63;67.61;100478.53;4977479;28;46779;-76
2023/06/19 02:24:25;;;;;;;;;13.00;12.25;;;;;21.53;67.58;100472.66;4978173;28;45652;-84
2023/06/19 02:26:50;;;;;;;;;10.00;10.00;;;;;21.41;67.54;100466.13;4978113;28;45844;-79
2023/06/19 02:29:16;;;;;;;;;10.00;10.00;;;;;21.41;67.91;100475.94;4980359;28;46405;-78
2023/06/19 02:31:42;;;;;;;;;10.25;8.50;;;;;21.41;67.65;100484.78;4963915;28;47352;-88
2023/06/19 02:34:09;;;;;;;;;12.75;10.75;;;;;21.37;67.92;100480.81;4978312;28;45408;-87
2023/06/19 02:36:35;;;;;;;;;11.75;11.00;;;;;21.34;67.85;100492.66;4977809;28;45603;-77
2023/06/19 02:39:01;;;;;;;;;13.25;12.00;;;;;21.23;67.86;100473.63;4976377;28;45535;-82
2023/06/19 02:41:26;;;;;;;;;11.75;11.25;;;;;21.30;67.91;100490.56;4976636;28;46641;-75
2023/06/19 02:43:51;;;;;;;;;11.75;10.25;;;;;21.28;67.63;100484.56;4976010;28;45612;-74
2023/06/19 02:50:06;;;;;;;;;13.75;11.25;;;;;21.22;68.17;100491.44;4968103;28;45662;-85
2023/06/19 02:52:33;;;;;;;;;11.25;11.00;;;;;21.25;68.01;100504.44;4975903;28;45686;-79
2023/06/19 02:54:58;;;;;;;;;10.50;10.50;;;;;21.15;67.76;100484.38;4975465;28;45612;-88
2023/06/19 02:57:24;;;;;;;;;10.75;10.75;;;;;21.25;67.78;100500.94;4958467;28;45566;-78
2023/06/19 02:59:49;;;;;;;;;11.75;11.25;;;;;21.16;67.95;100486.84;4976376;28;47270;-83
2023/06/19 03:02:15;;;;;;;;;11.25;10.25;;;;;21.24;67.73;100496.59;4975745;28;46541;-89
2023/06/19 03:04:41;;;;;;;;;13.50;11.50;;;;;21.24;68.24;100497.44;4973496;28;45599;-85
2023/06/19 03:07:06;;;;;;;;;12.25;10.25;;;;;21.23;68.06;100481.63;4974521;28;45789;-87
2023/06/19 03:09:31;;;;;;;;;12.75;12.00;;;;;21.25;67.78;100482.28;4975226;28;47120;-85
2023/06/19 03:11:57;;;;;;;;;12.25;10.50;;;;;21.26;67.92;100487.44;4974507;28;48051;-84
2023/06/19 03:14:22;;;;;;;;;11.50;10.00;;;;;21.25;67.98;100492.94;4974533;28;45788;-81
2023/06/19 03:20:11;;;;;;;;;12.50;11.00;;;;;21.26;67.90;100492.75;4976022;28;46165;-85
2023/06/19 03:22:41;;;;;;;;;14.25;14.00;;;;;21.25;67.79;100487.59;4975356;28;45802;-88
2023/06/19 03:25:08;;;;;;;;;13.75;11.00;;;;;21.24;68.15;100486.78;4974857;28;45601;-90
2023/06/19 03:27:33;;;;;;;;;13.25;12.75;;;;;21.16;68.03;100476.16;4975887;28;45676;-89
2023/06/19 03:29:59;;;;;;;;;13.00;12.00;;;;;21.20;68.30;100485.47;4975042;28;46059;-86
2023/06/19 03:32:24;;;;;;;;;11.50;10.00;;;;;21.19;68.53;100496.31;4974875;28;45576;-89
2023/06/19 03:34:49;;;;;;;;;13.00;12.25;;;;;21.09;68.56;100495.72;4978602;28;45482;-84
2023/06/19 03:37:15;;;;;;;;;11.25;10.25;;;;;21.03;68.01;100491.94;4975540;28;45454;-81
2023/06/19 03:39:41;;;;;;;;;12.25;11.00;;;;;20.94;68.35;100472.50;4975064;28;47353;-82
2023/06/19 03:42:07;;;;;;;;;14.25;12.50;;;;;20.98;68.18;100488.16;4983136;28;46262;-74
2023/06/19 03:44:32;;;;;;;;;15.00;12.75;;;;;21.05;68.30;100505.06;4984187;28;45533;-80
2023/06/19 03:50:19;;;;;;;;;12.75;12.25;;;;;20.85;68.88;100499.38;4967658;28;45627;-87
2023/06/19 03:52:45;;;;;;;;;12.25;11.00;;;;;20.84;68.97;100508.38;4974132;28;46211;-86
2023/06/19 03:55:10;;;;;;;;;12.75;11.50;;;;;20.78;68.99;100511.78;4975417;28;45647;-83
2023/06/19 03:57:35;;;;;;;;;14.00;12.00;;;;;20.68;69.40;100498.66;4974891;28;45518;-86
2023/06/19 04:00:01;;;;;;;;;10.50;10.00;;;;;20.70;68.89;100507.31;4974051;28;46357;-84
2023/06/19 04:05:48;;;;;;;;;13.25;11.75;;;;;20.64;69.18;100510.69;4973912;28;45470;-88
2023/06/19 04:08:13;;;;;;;;;15.00;13.50;;;;;20.61;69.57;100496.91;4973892;28;45651;-85
2023/06/19 04:10:38;;;;;;;;;10.75;10.00;;;;;20.54;69.31;100491.47;4974058;28;47458;-79
2023/06/19 04:13:06;;;;;;;;;12.50;12.00;;;;;20.60;69.33;100512.06;4974953;28;47153;-87
2023/06/19 04:15:32;;;;;;;;;11.50;11.25;;;;;20.62;69.20;100501.25;4975553;28;45597;-88
2023/06/19 04:17:57;;;;;;;;;13.25;11.00;;;;;20.63;69.16;100517.00;4975347;28;45572;-84
2023/06/19 04:20:23;;;;;;;;;11.75;11.75;;;;;20.62;69.44;100520.66;4974561;28;46482;-88
2023/06/19 04:22:48;;;;;;;;;15.00;13.50;;;;;20.69;69.16;100518.13;4973869;28;47152;-86
2023/06/19 04:25:13;;;;;;;;;12.50;12.25;;;;;20.68;68.97;100524.47;4957230;28;45811;-88
2023/06/19 04:27:39;;;;;;;;;14.75;13.00;;;;;20.59;69.11;100512.22;4961996;28;45899;-88
2023/06/19 04:30:06;;;;;;;;;11.75;11.75;;;;;20.71;69.24;100535.63;4980546;28;46432;-83
2023/06/19 04:35:55;;;;;;;;;13.00;11.50;;;;;20.78;69.19;100549.06;4982292;28;45552;-82
2023/06/19 04:38:23;;;;;;;;;15.75;14.50;;;;;20.75;68.91;100538.75;4983696;28;46014;-83
2023/06/19 04:40:50;;;;;;;;;12.75;12.75;;;;;20.82;68.95;100543.19;4986006;28;47578;-82
2023/06/19 04:43:15;;;;;;;;;14.50;14.00;;;;;20.84;68.92;100549.16;4985340;28;45861;-88
2023/06/19 04:45:40;;;;;;;;;12.00;12.00;;;;;20.85;69.19;100550.00;4985951;28;45599;-88
2023/06/19 04:48:06;;;;;;;;;13.75;11.00;;;;;20.85;69.10;100544.66;4983294;28;45940;-89
2023/06/19 04:50:31;;;;;;;;;13.00;11.75;;;;;20.80;68.88;100534.53;4984887;28;45644;-92
2023/06/19 04:52:56;;;;;;;;;12.00;11.50;;;;;20.79;68.82;100534.72;4982897;28;47301;-90
2023/06/19 04:55:24;;;;;;;;;14.75;14.75;;;;;20.79;69.16;100532.06;4983276;28;45719;-92
2023/06/19 04:57:51;;;;;;;;;13.25;10.50;;;;;20.81;68.66;100543.38;4979184;28;45647;-81
2023/06/19 05:00:19;;;;;;;;;13.00;12.00;;;;;20.72;68.61;100526.63;4976393;28;45763;-80
2023/06/19 05:06:06;;;;;;;;;13.00;13.00;;;;;20.83;68.86;100547.53;4974998;28;45594;-80
2023/06/19 05:08:31;;;;;;;;;14.00;14.00;;;;;20.86;69.00;100551.66;4975359;28;45908;-80
2023/06/19 05:10:57;;;;;;;;;12.50;11.75;;;;;20.85;68.87;100558.81;4974892;28;45520;-79
2023/06/19 05:13:23;;;;;;;;;14.00;14.00;;;;;20.83;68.71;100552.03;4974822;28;46204;-81
2023/06/19 05:15:50;;;;;;;;;18.00;14.00;;;;;20.87;68.46;100554.16;4974951;28;45529;-81
2023/06/19 05:21:37;;;;;;;;;14.50;13.00;;;;;20.98;68.42;100554.75;4975054;28;45613;-81
2023/06/19 05:24:02;;;;;;;;;13.00;12.00;;;;;21.01;68.37;100543.72;4975310;28;45657;-78
2023/06/19 05:26:28;;;;;;;;;14.50;14.00;;;;;21.04;68.21;100536.22;4975079;28;45530;-78
2023/06/19 05:28:53;;;;;;;;;14.50;14.00;;;;;21.02;68.63;100530.22;4974966;28;45841;-79
2023/06/19 05:31:19;;;;;;;;;15.25;13.50;;;;;21.09;68.37;100546.34;4974784;28;45498;-79
2023/06/19 05:33:45;;;;;;;;;15.25;12.50;;;;;20.97;68.02;100523.78;4974824;28;45635;-79
2023/06/19 05:36:10;;;;;;;;;17.25;14.75;;;;;21.12;68.51;100544.13;4974332;28;45584;-78
2023/06/19 05:38:36;;;;;;;;;15.25;13.75;;;;;21.15;68.41;100537.66;4973941;28;45528;-78
2023/06/19 05:41:02;;;;;;;;;14.50;14.50;;;;;21.23;68.38;100542.91;4974646;28;45563;-77
2023/06/19 05:43:28;;;;;;;;;19.50;18.00;;;;;21.12;67.91;100511.31;4972892;28;47220;-77
2023/06/19 05:45:55;;;;;;;;;15.00;14.50;;;;;21.15;67.92;100511.84;4973598;28;45647;-78
2023/06/19 05:51:43;;;;;;;;;17.00;15.25;;;;;21.32;68.06;100524.00;4963611;28;46138;-78
2023/06/19 05:54:09;;;;;;;;;14.00;13.50;;;;;21.34;68.20;100511.31;4973969;28;46015;-78
2023/06/19 05:56:36;;;;;;;;;19.00;16.75;;;;;21.44;68.09;100521.72;4974014;28;45588;-76
2023/06/19 05:59:01;;;;;;;;;14.75;14.50;;;;;21.49;67.61;100537.16;4974314;28;45588;-76
2023/06/19 06:07:33;;;;;;;;;3.25;0.50;;;;;21.61;67.64;100520.56;4973774;28;45742;-77
2023/06/19 06:09:58;;;;;;;;;21.50;19.50;;;;;21.69;67.51;100525.00;4973177;28;45634;-77
2023/06/19 06:12:24;;;;;;;;;17.25;16.50;;;;;21.56;67.51;100503.44;4973319;28;46512;-75
2023/06/19 06:14:49;;;;;;;;;18.00;17.00;;;;;21.70;67.69;100524.00;4973435;28;45998;-77
2023/06/19 06:17:14;;;;;;;;;18.50;17.50;;;;;21.79;67.13;100533.53;4973693;28;45774;-77
2023/06/19 06:19:39;;;;;;;;;15.50;14.75;;;;;21.80;67.24;100524.53;4973916;28;45498;-75
2023/06/19 06:22:05;;;;;;;;;14.50;13.75;;;;;21.86;67.21;100539.81;4973868;28;45511;-76
2023/06/19 06:24:30;;;;;;;;;16.25;14.25;;;;;21.91;67.11;100541.91;4973923;28;46182;-76
2023/06/19 06:26:56;;;;;;;;;15.75;12.75;;;;;21.94;66.58;100553.06;4973962;28;45689;-76
2023/06/19 06:29:21;;;;;;;;;18.00;17.50;;;;;21.97;67.09;100555.38;4973863;28;45697;-76
2023/06/19 06:31:47;;;;;;;;;15.50;14.25;;;;;21.95;66.86;100545.91;4974081;28;45882;-77
2023/06/19 06:37:33;;;;;;;;;19.00;16.75;;;;;22.03;67.00;100559.13;4974075;28;45709;-76
2023/06/19 06:39:59;;;;;;;;;18.50;15.75;;;;;22.10;66.39;100568.91;4973950;28;45644;-78
2023/06/19 06:42:24;;;;;;;;;14.75;14.00;;;;;22.13;66.94;100578.41;4973911;28;45821;-77
2023/06/19 06:44:50;;;;;;;;;17.75;16.25;;;;;22.04;66.75;100553.63;4973669;28;45743;-75
2023/06/19 06:47:18;;;;;;;;;16.75;16.50;;;;;22.18;66.88;100576.00;4973738;28;45667;-77
2023/06/19 06:49:47;;;;;;;;;18.75;16.50;;;;;22.17;66.77;100582.34;4973757;28;45731;-76
2023/06/19 06:52:16;;;;;;;;;17.00;14.50;;;;;22.30;66.49;100587.00;4973363;28;46619;-77
2023/06/19 06:54:41;;;;;;;;;17.00;16.00;;;;;22.27;67.07;100582.06;4973485;28;46246;-77
2023/06/19 06:57:07;;;;;;;;;16.75;14.75;;;;;22.34;66.28;100581.13;4973795;28;45935;-77
2023/06/19 06:59:32;;;;;;;;;15.75;14.00;;;;;22.28;66.32;100562.38;4973730;28;45767;-77
2023/06/19 07:01:57;;;;;;;;;20.25;19.25;;;;;22.38;66.62;100574.41;4973376;28;45520;-76
2023/06/19 07:07:45;;;;;;;;;19.25;17.75;;;;;22.50;66.50;100586.28;4973584;28;45728;-78
2023/06/19 07:10:10;;;;;;;;;22.00;19.75;;;;;22.52;66.33;100584.22;4973678;28;45682;-76
2023/06/19 07:12:44;;;;;;;;;16.50;16.25;;;;;22.55;65.73;100591.06;4973016;28;46394;-77
2023/06/19 07:15:10;;;;;;;;;18.25;15.75;;;;;22.62;65.91;100591.13;4973551;28;46147;-77
2023/06/19 07:17:36;;;;;;;;;17.75;17.75;;;;;22.55;65.79;100575.03;4973460;28;45832;-77
2023/06/19 07:20:17;;;;;;;;;17.75;17.00;;;;;22.62;66.25;100577.78;4973243;28;45627;-75
2023/06/19 07:22:43;;;;;;;;;22.00;20.50;;;;;22.72;66.24;100586.34;4970656;28;46841;-78
2023/06/19 07:25:10;;;;;;;;;18.25;16.00;;;;;22.61;66.15;100563.59;4972984;28;46417;-76
2023/06/19 07:27:36;;;;;;;;;17.75;16.75;;;;;22.77;65.46;100592.78;4973112;28;45633;-77
2023/06/19 07:30:02;;;;;;;;;17.00;16.50;;;;;22.81;65.29;100590.56;4972599;28;45623;-77
2023/06/19 07:32:27;;;;;;;;;17.50;15.25;;;;;22.83;65.89;100597.38;4972295;28;47697;-78
2023/06/19 07:38:16;;;;;;;;;18.00;17.00;;;;;22.88;65.32;100578.94;4972556;28;45677;-74
2023/06/19 07:40:41;;;;;;;;;20.00;18.50;;;;;22.89;64.83;100587.75;4972609;28;45759;-76
2023/06/19 07:43:06;;;;;;;;;15.25;15.00;;;;;22.92;65.50;100580.19;4972612;28;45627;-77
2023/06/19 07:45:32;;;;;;;;;18.00;16.75;;;;;22.94;64.69;100583.50;4972896;28;45557;-76
2023/06/19 07:47:57;;;;;;;;;18.50;17.50;;;;;22.95;64.83;100589.66;4972856;28;45584;-76
2023/06/19 07:50:23;;;;;;;;;17.75;17.25;;;;;22.93;64.70;100573.00;4972902;28;45731;-77
2023/06/19 07:52:48;;;;;;;;;19.75;17.75;;;;;22.99;64.50;100589.13;4972835;28;45660;-76
2023/06/19 07:55:13;;;;;;;;;21.00;18.50;;;;;23.01;64.62;100584.41;4972890;28;46040;-76
2023/06/19 07:57:39;;;;;;;;;20.00;19.50;;;;;22.84;64.54;100561.59;4972719;28;45620;-77
2023/06/19 08:00:10;;;;;;;;;17.25;14.75;;;;;22.98;64.28;100582.13;4972770;28;45792;-76
2023/06/19 08:02:36;;;;;;;;;19.00;17.75;;;;;23.04;65.01;100585.06;4974917;28;45643;-76
2023/06/19 08:08:23;;;;;;;;;23.25;20.50;;;;;23.09;64.63;100580.78;4975785;28;45712;-75
2023/06/19 08:10:48;;;;;;;;;20.75;20.00;;;;;23.09;64.41;100586.13;4976131;28;45945;-77
2023/06/19 08:13:14;;;;;;;;;22.00;21.25;;;;;23.07;64.92;100574.78;4975895;28;46496;-77
2023/06/19 08:15:39;;;;;;;;;20.50;19.50;;;;;23.11;65.07;100578.72;4975429;28;47018;-76
2023/06/19 08:18:04;;;;;;;;;20.00;18.50;;;;;23.15;64.19;100588.03;4957658;28;45811;-77
2023/06/19 08:20:30;;;;;;;;;18.75;18.25;;;;;23.15;64.21;100589.88;4974206;28;46019;-78
2023/06/19 08:22:56;;;;;;;;;20.25;17.75;;;;;23.17;64.23;100594.00;4975505;28;46524;-77
2023/06/19 08:25:21;;;;;;;;;18.75;17.00;;;;;23.18;64.05;100593.00;4975543;28;45924;-77
2023/06/19 08:27:47;;;;;;;;;19.25;17.50;;;;;23.20;64.50;100590.97;4975906;28;45744;-77
2023/06/19 08:30:12;;;;;;;;;18.50;17.50;;;;;23.22;64.04;100586.25;4975715;28;45577;-77
2023/06/19 08:32:38;;;;;;;;;17.50;17.25;;;;;23.24;64.35;100586.06;4975500;28;46486;-75
2023/06/19 08:38:26;;;;;;;;;19.00;18.25;;;;;23.30;63.41;100585.28;4975162;28;45724;-76
2023/06/19 08:40:51;;;;;;;;;19.50;17.50;;;;;23.29;63.69;100588.97;4975913;28;45608;-76
2023/06/19 08:43:16;;;;;;;;;17.50;16.50;;;;;23.28;63.00;100596.16;4957771;28;47232;-78
2023/06/19 08:45:42;;;;;;;;;18.00;16.75;;;;;23.31;63.70;100597.66;4974008;28;46780;-78
2023/06/19 08:48:08;;;;;;;;;15.25;13.50;;;;;23.30;63.18;100588.78;4975588;28;45845;-77
2023/06/19 08:54:43;;;;;;;;;14.00;13.25;;;;;23.41;63.18;100587.44;4970545;28;45709;-77
2023/06/19 08:57:10;;;;;;;;;13.00;11.50;;;;;23.41;62.12;100582.09;4975401;28;46186;-75
2023/06/19 08:59:35;;;;;;;;;16.00;13.50;;;;;23.46;62.23;100585.06;4975324;28;45792;-79
2023/06/19 09:02:00;;;;;;;;;11.00;11.00;;;;;23.47;62.27;100570.66;4975657;28;45632;-77
2023/06/19 09:07:56;;;;;;;;;10.00;9.00;;;;;23.57;61.46;100573.00;4974953;28;45753;-76
2023/06/19 09:10:23;;;;;;;;;10.50;10.00;;;;;23.59;60.94;100573.66;4975134;28;45482;-76
2023/06/19 09:13:04;;;;;;;;;13.00;11.25;;;;;23.65;61.26;100567.50;4975259;28;45707;-77
2023/06/19 09:15:32;;;;;;;;;10.75;9.50;;;;;23.66;60.96;100561.94;4974880;28;45511;-78
2023/06/19 09:18:11;;;;;;;;;13.75;12.25;;;;;23.70;61.21;100568.56;4957049;28;45992;-76
2023/06/19 09:24:07;;;;;;;;;10.75;10.75;;;;;23.74;60.76;100567.16;4974708;28;45689;-77
2023/06/19 09:26:34;;;;;;;;;10.25;9.00;;;;;23.81;60.84;100564.50;4974710;28;46262;-75
2023/06/19 09:29:13;;;;;;;;;7.50;7.50;;;;;23.86;60.59;100562.06;4974773;28;45950;-76
2023/06/19 09:31:41;;;;;;;;;9.25;8.25;;;;;23.91;60.58;100565.03;4974718;28;45646;-76
2023/06/19 09:34:06;;;;;;;;;7.00;6.25;;;;;23.98;60.17;100565.03;4974863;28;45697;-75
2023/06/19 09:36:33;;;;;;;;;9.75;7.25;;;;;24.00;59.74;100561.16;4974637;28;45731;-76
2023/06/19 09:39:01;;;;;;;;;7.00;6.25;;;;;24.06;60.25;100563.03;4974711;28;46154;-76
2023/06/19 09:41:29;;;;;;;;;8.00;7.50;;;;;24.13;60.41;100571.91;4974811;28;45667;-76
2023/06/19 09:43:59;;;;;;;;;8.75;8.25;;;;;24.23;59.76;100567.09;4974775;28;45754;-76
2023/06/19 09:46:31;;;;;;;;;11.00;10.00;;;;;24.30;59.48;100558.22;4974583;28;46319;-77
2023/06/19 09:49:01;;;;;;;;;8.00;8.00;;;;;24.39;59.83;100559.72;4974422;28;45800;-77
2023/06/19 09:51:41;;;;;;;;;9.25;9.00;;;;;24.44;59.24;100546.56;4974497;28;45756;-78
2023/06/19 09:54:09;;;;;;;;;10.00;9.00;;;;;24.55;58.96;100554.84;4974265;28;45537;-75
2023/06/19 09:56:35;;;;;;;;;8.00;7.50;;;;;24.64;58.63;100552.81;4974049;28;46163;-75
2023/06/19 09:59:03;;;;;;;;;9.50;8.25;;;;;24.66;58.76;100550.75;4974387;28;46062;-77
2023/06/19 10:01:31;;;;;;;;;6.75;6.75;;;;;24.75;58.26;100549.53;4974022;28;45661;-75
2023/06/19 10:10:50;;;;;;;;;8.00;7.00;;;;;25.00;57.87;100547.13;4973945;28;45973;-76
2023/06/19 10:13:16;;;;;;;;;8.75;8.00;;;;;25.03;57.69;100542.19;4973997;28;45704;-78
2023/06/19 10:15:44;;;;;;;;;8.75;8.25;;;;;25.10;57.47;100541.38;4974102;28;45807;-77
2023/06/19 10:18:18;;;;;;;;;12.00;9.00;;;;;25.09;57.44;100540.56;4956109;28;48800;-77
2023/06/19 10:20:45;;;;;;;;;7.50;7.50;;;;;25.19;57.21;100543.66;4973754;28;46473;-76
2023/06/19 10:23:12;;;;;;;;;9.00;9.00;;;;;25.24;57.05;100538.50;4973880;28;45850;-77
2023/06/19 10:25:41;;;;;;;;;8.50;7.75;;;;;25.23;56.87;100531.47;4973503;28;45743;-76
2023/06/19 10:28:24;;;;;;;;;9.75;9.75;;;;;25.18;56.37;100511.66;4973953;28;46274;-78
2023/06/19 10:30:56;;;;;;;;;7.00;7.00;;;;;25.38;56.19;100533.94;4974120;28;45903;-76
2023/06/19 10:33:23;;;;;;;;;7.75;7.25;;;;;25.43;55.27;100524.25;4973907;28;45561;-76
2023/06/19 10:35:49;;;;;;;;;7.25;6.50;;;;;25.45;54.82;100513.31;4973495;28;45687;-77
2023/06/19 10:38:15;;;;;;;;;8.50;8.25;;;;;25.50;55.34;100519.69;4973582;28;46748;-76
2023/06/19 10:40:41;;;;;;;;;9.25;8.50;;;;;25.55;54.51;100524.44;4973620;28;46110;-77
2023/06/19 10:43:06;;;;;;;;;7.75;6.25;;;;;25.44;54.07;100499.06;4955829;28;45691;-77
2023/06/19 10:45:32;;;;;;;;;7.00;7.00;;;;;25.68;53.76;100529.00;4973661;28;45764;-75
2023/06/19 10:48:02;;;;;;;;;9.75;9.75;;;;;25.74;53.70;100522.78;4973722;28;45530;-77
2023/06/19 10:50:28;;;;;;;;;12.25;11.00;;;;;25.72;53.42;100506.91;4973423;28;46318;-77
2023/06/19 10:52:54;;;;;;;;;8.75;8.00;;;;;25.87;52.68;100528.94;4973288;28;45698;-76
2023/06/19 10:55:21;;;;;;;;;7.50;7.50;;;;;25.82;53.06;100504.59;4973721;28;45631;-76
2023/06/19 10:57:47;;;;;;;;;10.25;9.25;;;;;25.94;52.98;100512.00;4973614;28;46540;-76
2023/06/19 11:00:29;;;;;;;;;9.50;7.50;;;;;26.11;52.95;100522.06;4973389;28;46005;-76
2023/06/19 11:02:56;;;;;;;;;9.25;9.00;;;;;26.20;51.91;100514.59;4973317;28;45633;-75
2023/06/19 11:05:23;;;;;;;;;8.00;7.25;;;;;26.26;51.77;100511.06;4973406;28;45804;-78
2023/06/19 11:07:57;;;;;;;;;8.75;8.00;;;;;25.97;51.32;100449.81;4973176;28;46313;-78
2023/06/19 11:10:27;;;;;;;;;6.75;6.75;;;;;26.26;51.18;100485.03;4973122;28;45876;-77
2023/06/19 11:12:57;;;;;;;;;8.50;8.00;;;;;26.45;50.76;100501.28;4973164;28;45763;-77
2023/06/19 11:15:33;;;;;;;;;8.25;7.50;;;;;26.48;50.04;100490.09;4973253;28;45526;-75
2023/06/19 11:18:02;;;;;;;;;1.75;1.00;;;;;26.57;50.20;100494.16;4973358;28;45530;-75
2023/06/19 11:20:28;;;;;;;;;9.00;7.75;;;;;26.63;49.39;100496.00;4973099;28;46147;-77
2023/06/19 11:22:56;;;;;;;;;8.00;7.50;;;;;26.65;49.00;100494.75;4973309;28;45725;-77
2023/06/19 11:25:22;;;;;;;;;8.00;8.00;;;;;26.69;49.40;100487.06;4973360;28;45745;-76
2023/06/19 11:27:51;;;;;;;;;8.50;8.50;;;;;26.80;49.04;100505.19;4973186;28;46208;-75
2023/06/19 11:30:18;;;;;;;;;8.00;8.00;;;;;26.82;48.96;100499.59;4973105;28;45604;-79
2023/06/19 11:32:47;;;;;;;;;8.00;7.25;;;;;26.90;48.51;100508.25;4973046;28;45686;-75
2023/06/19 11:35:13;;;;;;;;;9.75;9.75;;;;;26.92;47.88;100497.28;4972918;28;45595;-76
2023/06/19 11:37:43;;;;;;;;;7.50;7.25;;;;;26.94;48.20;100498.69;4975673;28;45720;-75
2023/06/19 11:40:14;;;;;;;;;7.50;7.00;;;;;26.89;47.81;100479.69;4976412;28;45910;-78
2023/06/19 11:42:47;;;;;;;;;7.00;6.25;;;;;26.92;47.84;100479.28;4976551;28;45644;-77
2023/06/19 11:45:13;;;;;;;;;8.75;8.00;;;;;26.78;47.42;100458.03;4976654;28;45553;-78
2023/06/19 11:47:39;;;;;;;;;6.50;5.00;;;;;27.01;47.42;100490.59;4976512;28;46418;-77
2023/06/19 11:50:05;;;;;;;;;9.50;9.00;;;;;27.02;47.35;100490.38;4976422;28;45557;-76
2023/06/19 11:52:31;;;;;;;;;9.25;8.00;;;;;26.99;46.95;100480.03;4976304;28;45727;-77
2023/06/19 11:54:56;;;;;;;;;16.75;15.75;;;;;27.08;46.93;100488.66;4976145;28;45692;-77
2023/06/19 11:57:21;;;;;;;;;9.00;8.00;;;;;27.09;47.21;100488.47;4976468;28;45688;-78
2023/06/19 11:59:47;;;;;;;;;9.00;9.00;;;;;27.09;47.10;100479.56;4976330;28;46415;-77
2023/06/19 12:02:12;;;;;;;;;8.25;8.25;;;;;27.17;46.98;100478.44;4976542;28;45606;-78
2023/06/19 12:04:38;;;;;;;;;9.75;9.00;;;;;27.10;47.27;100468.56;4976398;28;45657;-77
2023/06/19 12:10:24;;;;;;;;;10.50;9.75;;;;;27.19;47.02;100481.75;4975933;28;45856;-77
2023/06/19 12:12:50;;;;;;;;;8.00;7.00;;;;;27.12;46.88;100469.19;4976208;28;45553;-77
2023/06/19 12:15:15;;;;;;;;;9.75;9.00;;;;;27.17;47.31;100486.53;4976162;28;45501;-77
2023/06/19 12:17:41;;;;;;;;;8.50;7.75;;;;;27.14;47.32;100477.03;4975861;28;46293;-78
2023/06/19 12:20:07;;;;;;;;;8.50;8.50;;;;;27.06;47.26;100474.59;4975907;28;45679;-76
2023/06/19 12:25:54;;;;;;;;;11.00;10.50;;;;;27.09;47.27;100469.63;4975590;28;45604;-79
2023/06/19 12:28:21;;;;;;;;;9.00;9.00;;;;;27.10;47.05;100473.94;4975889;28;46181;-78
2023/06/19 12:30:48;;;;;;;;;8.25;7.50;;;;;27.09;46.82;100474.19;4976012;28;45916;-77
2023/06/19 12:33:13;;;;;;;;;10.00;10.00;;;;;26.93;46.85;100454.03;4975797;28;45616;-78
2023/06/19 12:35:41;;;;;;;;;10.00;9.25;;;;;26.95;46.63;100459.19;4975765;28;45669;-77
2023/06/19 12:38:07;;;;;;;;;11.25;10.50;;;;;27.01;47.56;100479.81;4975545;28;46511;-77
2023/06/19 12:40:33;;;;;;;;;8.75;8.75;;;;;26.98;47.35;100475.72;4975672;28;46545;-77
2023/06/19 12:42:58;;;;;;;;;10.25;9.00;;;;;26.85;47.48;100458.81;4975554;28;45594;-77
2023/06/19 12:45:23;;;;;;;;;9.50;8.25;;;;;26.93;47.63;100475.56;4975767;28;45559;-77